sensor_id;sensor_type;location;lat;lon;timestamp;P1;durP1;ratioP1;P2;durP2;ratioP2
13309;SDS011;6723;48.256;16.402;2024-02-15T00:01:40;5.90;;;3.87;;
13309;SDS011;6723;48.256;16.402;2024-02-15T00:04:07;6.03;;;3.77;;
13309;SDS011;6723;48.256;16.402;2024-02-15T00:06:33;4.60;;;3.13;;
13309;SDS011;6723;48.256;16.402;2024-02-15T00:09:00;3.40;;;2.30;;
13309;SDS011;6723;48.256;16.402;2024-02-15T00:11:26;4.57;;;3.00;;
13309;SDS011;6723;48.256;16.402;2024-02-15T00:13:51;5.40;;;2.47;;
13309;SDS011;6723;48.256;16.402;2024-02-15T00:16:17;5.50;;;2.70;;
13309;SDS011;6723;48.256;16.402;2024-02-15T00:18:43;3.57;;;2.60;;
13309;SDS011;6723;48.256;16.402;2024-02-15T00:21:10;3.33;;;2.37;;
13309;SDS011;6723;48.256;16.402;2024-02-15T00:23:36;4.57;;;2.90;;
13309;SDS011;6723;48.256;16.402;2024-02-15T00:26:02;3.47;;;2.97;;
13309;SDS011;6723;48.256;16.402;2024-02-15T00:28:27;5.37;;;3.40;;
13309;SDS011;6723;48.256;16.402;2024-02-15T00:30:53;4.83;;;3.70;;
13309;SDS011;6723;48.256;16.402;2024-02-15T00:33:19;6.53;;;4.10;;
13309;SDS011;6723;48.256;16.402;2024-02-15T00:35:45;4.80;;;3.60;;
13309;SDS011;6723;48.256;16.402;2024-02-15T00:38:11;7.33;;;4.00;;
13309;SDS011;6723;48.256;16.402;2024-02-15T00:40:36;5.67;;;3.70;;
13309;SDS011;6723;48.256;16.402;2024-02-15T00:43:02;5.80;;;4.10;;
13309;SDS011;6723;48.256;16.402;2024-02-15T00:45:29;5.73;;;3.53;;
13309;SDS011;6723;48.256;16.402;2024-02-15T00:47:55;7.50;;;3.80;;
13309;SDS011;6723;48.256;16.402;2024-02-15T00:50:21;5.60;;;3.87;;
13309;SDS011;6723;48.256;16.402;2024-02-15T00:52:47;6.67;;;4.10;;
13309;SDS011;6723;48.256;16.402;2024-02-15T00:55:13;6.47;;;4.40;;
13309;SDS011;6723;48.256;16.402;2024-02-15T00:57:38;7.23;;;4.37;;
13309;SDS011;6723;48.256;16.402;2024-02-15T01:00:05;6.57;;;3.87;;
13309;SDS011;6723;48.256;16.402;2024-02-15T01:02:31;5.87;;;4.03;;
13309;SDS011;6723;48.256;16.402;2024-02-15T01:04:57;7.10;;;4.00;;
13309;SDS011;6723;48.256;16.402;2024-02-15T01:07:24;6.17;;;4.17;;
13309;SDS011;6723;48.256;16.402;2024-02-15T01:09:53;7.00;;;4.47;;
13309;SDS011;6723;48.256;16.402;2024-02-15T01:12:19;6.57;;;4.50;;
13309;SDS011;6723;48.256;16.402;2024-02-15T01:14:46;7.13;;;3.90;;
13309;SDS011;6723;48.256;16.402;2024-02-15T01:17:12;6.20;;;3.80;;
13309;SDS011;6723;48.256;16.402;2024-02-15T01:19:38;6.10;;;3.63;;
13309;SDS011;6723;48.256;16.402;2024-02-15T01:22:04;6.47;;;3.63;;
13309;SDS011;6723;48.256;16.402;2024-02-15T01:24:31;4.93;;;3.60;;
13309;SDS011;6723;48.256;16.402;2024-02-15T01:26:57;7.13;;;3.50;;
13309;SDS011;6723;48.256;16.402;2024-02-15T01:29:23;5.60;;;3.20;;
13309;SDS011;6723;48.256;16.402;2024-02-15T01:31:51;6.53;;;3.63;;
13309;SDS011;6723;48.256;16.402;2024-02-15T01:34:17;5.20;;;3.60;;
13309;SDS011;6723;48.256;16.402;2024-02-15T01:36:42;5.30;;;3.53;;
13309;SDS011;6723;48.256;16.402;2024-02-15T01:39:08;6.30;;;3.70;;
13309;SDS011;6723;48.256;16.402;2024-02-15T01:41:34;6.43;;;3.60;;
13309;SDS011;6723;48.256;16.402;2024-02-15T01:44:00;5.57;;;4.00;;
13309;SDS011;6723;48.256;16.402;2024-02-15T01:46:26;6.93;;;3.73;;
13309;SDS011;6723;48.256;16.402;2024-02-15T01:48:54;8.20;;;4.13;;
13309;SDS011;6723;48.256;16.402;2024-02-15T01:51:21;8.27;;;4.10;;
13309;SDS011;6723;48.256;16.402;2024-02-15T01:53:53;5.47;;;4.27;;
13309;SDS011;6723;48.256;16.402;2024-02-15T01:56:19;6.13;;;4.57;;
13309;SDS011;6723;48.256;16.402;2024-02-15T01:58:48;7.10;;;4.53;;
13309;SDS011;6723;48.256;16.402;2024-02-15T02:01:14;5.63;;;4.30;;
13309;SDS011;6723;48.256;16.402;2024-02-15T02:03:41;7.63;;;4.60;;
13309;SDS011;6723;48.256;16.402;2024-02-15T02:06:07;6.30;;;4.47;;
13309;SDS011;6723;48.256;16.402;2024-02-15T02:08:33;6.10;;;4.40;;
13309;SDS011;6723;48.256;16.402;2024-02-15T02:10:59;7.40;;;4.77;;
13309;SDS011;6723;48.256;16.402;2024-02-15T02:13:26;5.47;;;4.40;;
13309;SDS011;6723;48.256;16.402;2024-02-15T02:15:52;7.17;;;4.70;;
13309;SDS011;6723;48.256;16.402;2024-02-15T02:18:18;6.40;;;4.53;;
13309;SDS011;6723;48.256;16.402;2024-02-15T02:20:44;5.70;;;4.57;;
13309;SDS011;6723;48.256;16.402;2024-02-15T02:23:14;6.40;;;4.70;;
13309;SDS011;6723;48.256;16.402;2024-02-15T02:25:41;6.67;;;4.30;;
13309;SDS011;6723;48.256;16.402;2024-02-15T02:28:08;5.40;;;4.30;;
13309;SDS011;6723;48.256;16.402;2024-02-15T02:30:35;6.80;;;4.40;;
13309;SDS011;6723;48.256;16.402;2024-02-15T02:33:01;7.90;;;4.67;;
13309;SDS011;6723;48.256;16.402;2024-02-15T02:35:27;6.70;;;4.50;;
13309;SDS011;6723;48.256;16.402;2024-02-15T02:37:55;6.60;;;4.27;;
13309;SDS011;6723;48.256;16.402;2024-02-15T02:40:21;6.43;;;4.43;;
13309;SDS011;6723;48.256;16.402;2024-02-15T02:42:53;6.20;;;4.47;;
13309;SDS011;6723;48.256;16.402;2024-02-15T02:45:21;8.33;;;4.80;;
13309;SDS011;6723;48.256;16.402;2024-02-15T02:47:53;6.23;;;4.83;;
13309;SDS011;6723;48.256;16.402;2024-02-15T02:50:23;6.13;;;4.60;;
13309;SDS011;6723;48.256;16.402;2024-02-15T02:52:49;5.97;;;4.70;;
13309;SDS011;6723;48.256;16.402;2024-02-15T02:55:15;9.77;;;4.80;;
13309;SDS011;6723;48.256;16.402;2024-02-15T02:57:41;7.30;;;4.97;;
13309;SDS011;6723;48.256;16.402;2024-02-15T03:00:10;9.27;;;4.73;;
13309;SDS011;6723;48.256;16.402;2024-02-15T03:02:40;8.17;;;5.20;;
13309;SDS011;6723;48.256;16.402;2024-02-15T03:05:07;6.87;;;4.70;;
13309;SDS011;6723;48.256;16.402;2024-02-15T03:07:33;9.93;;;5.57;;
13309;SDS011;6723;48.256;16.402;2024-02-15T03:10:03;8.40;;;5.37;;
13309;SDS011;6723;48.256;16.402;2024-02-15T03:12:32;8.50;;;5.60;;
13309;SDS011;6723;48.256;16.402;2024-02-15T03:15:00;9.23;;;5.97;;
13309;SDS011;6723;48.256;16.402;2024-02-15T03:17:27;7.37;;;5.27;;
13309;SDS011;6723;48.256;16.402;2024-02-15T03:19:53;10.90;;;5.90;;
13309;SDS011;6723;48.256;16.402;2024-02-15T03:22:18;9.60;;;5.70;;
13309;SDS011;6723;48.256;16.402;2024-02-15T03:24:44;8.53;;;5.40;;
13309;SDS011;6723;48.256;16.402;2024-02-15T03:27:10;11.17;;;5.60;;
13309;SDS011;6723;48.256;16.402;2024-02-15T03:29:36;7.67;;;5.40;;
13309;SDS011;6723;48.256;16.402;2024-02-15T03:32:02;7.90;;;5.53;;
13309;SDS011;6723;48.256;16.402;2024-02-15T03:34:29;10.80;;;5.80;;
13309;SDS011;6723;48.256;16.402;2024-02-15T03:36:56;8.70;;;5.67;;
13309;SDS011;6723;48.256;16.402;2024-02-15T03:39:22;6.47;;;4.93;;
13309;SDS011;6723;48.256;16.402;2024-02-15T03:41:49;6.50;;;4.80;;
13309;SDS011;6723;48.256;16.402;2024-02-15T03:44:20;7.63;;;5.63;;
13309;SDS011;6723;48.256;16.402;2024-02-15T03:46:46;7.80;;;5.60;;
13309;SDS011;6723;48.256;16.402;2024-02-15T03:49:16;6.40;;;5.00;;
13309;SDS011;6723;48.256;16.402;2024-02-15T03:51:43;7.73;;;5.40;;
13309;SDS011;6723;48.256;16.402;2024-02-15T03:54:10;8.20;;;5.83;;
13309;SDS011;6723;48.256;16.402;2024-02-15T03:56:49;8.70;;;5.87;;
13309;SDS011;6723;48.256;16.402;2024-02-15T03:59:20;6.80;;;5.57;;
13309;SDS011;6723;48.256;16.402;2024-02-15T04:01:52;7.97;;;5.00;;
13309;SDS011;6723;48.256;16.402;2024-02-15T04:04:18;8.83;;;5.43;;
13309;SDS011;6723;48.256;16.402;2024-02-15T04:06:48;7.57;;;5.33;;
13309;SDS011;6723;48.256;16.402;2024-02-15T04:09:17;7.97;;;5.43;;
13309;SDS011;6723;48.256;16.402;2024-02-15T04:11:45;7.87;;;5.43;;
13309;SDS011;6723;48.256;16.402;2024-02-15T04:14:15;9.57;;;5.60;;
13309;SDS011;6723;48.256;16.402;2024-02-15T04:16:43;10.03;;;5.80;;
13309;SDS011;6723;48.256;16.402;2024-02-15T04:19:10;7.20;;;5.23;;
13309;SDS011;6723;48.256;16.402;2024-02-15T04:21:36;7.03;;;5.67;;
13309;SDS011;6723;48.256;16.402;2024-02-15T04:24:04;7.60;;;4.90;;
13309;SDS011;6723;48.256;16.402;2024-02-15T04:26:30;8.03;;;5.23;;
13309;SDS011;6723;48.256;16.402;2024-02-15T04:28:57;9.57;;;5.60;;
13309;SDS011;6723;48.256;16.402;2024-02-15T04:31:23;9.80;;;6.43;;
13309;SDS011;6723;48.256;16.402;2024-02-15T04:33:52;11.73;;;6.30;;
13309;SDS011;6723;48.256;16.402;2024-02-15T04:36:21;9.90;;;5.63;;
13309;SDS011;6723;48.256;16.402;2024-02-15T04:38:51;10.00;;;6.40;;
13309;SDS011;6723;48.256;16.402;2024-02-15T04:41:18;10.67;;;7.27;;
13309;SDS011;6723;48.256;16.402;2024-02-15T04:43:51;12.70;;;7.00;;
13309;SDS011;6723;48.256;16.402;2024-02-15T04:46:18;9.50;;;6.10;;
13309;SDS011;6723;48.256;16.402;2024-02-15T04:48:47;7.60;;;5.57;;
13309;SDS011;6723;48.256;16.402;2024-02-15T04:51:17;8.60;;;5.40;;
13309;SDS011;6723;48.256;16.402;2024-02-15T04:53:45;7.60;;;5.17;;
13309;SDS011;6723;48.256;16.402;2024-02-15T04:56:14;11.30;;;5.67;;
13309;SDS011;6723;48.256;16.402;2024-02-15T04:58:41;7.57;;;5.70;;
13309;SDS011;6723;48.256;16.402;2024-02-15T05:01:16;8.33;;;5.70;;
13309;SDS011;6723;48.256;16.402;2024-02-15T05:03:43;8.80;;;5.43;;
13309;SDS011;6723;48.256;16.402;2024-02-15T05:06:10;7.50;;;5.57;;
13309;SDS011;6723;48.256;16.402;2024-02-15T05:08:41;7.83;;;5.40;;
13309;SDS011;6723;48.256;16.402;2024-02-15T05:11:10;8.53;;;5.83;;
13309;SDS011;6723;48.256;16.402;2024-02-15T05:13:47;8.03;;;5.27;;
13309;SDS011;6723;48.256;16.402;2024-02-15T05:16:16;9.10;;;5.87;;
13309;SDS011;6723;48.256;16.402;2024-02-15T05:18:43;10.93;;;5.20;;
13309;SDS011;6723;48.256;16.402;2024-02-15T05:21:10;9.40;;;5.20;;
13309;SDS011;6723;48.256;16.402;2024-02-15T05:23:38;6.87;;;4.90;;
13309;SDS011;6723;48.256;16.402;2024-02-15T05:26:05;6.73;;;5.00;;
13309;SDS011;6723;48.256;16.402;2024-02-15T05:28:31;8.53;;;4.97;;
13309;SDS011;6723;48.256;16.402;2024-02-15T05:31:13;10.67;;;7.10;;
13309;SDS011;6723;48.256;16.402;2024-02-15T05:33:44;7.40;;;5.93;;
13309;SDS011;6723;48.256;16.402;2024-02-15T05:36:17;10.07;;;5.30;;
13309;SDS011;6723;48.256;16.402;2024-02-15T05:38:48;8.73;;;5.03;;
13309;SDS011;6723;48.256;16.402;2024-02-15T05:41:17;7.30;;;5.27;;
13309;SDS011;6723;48.256;16.402;2024-02-15T05:43:44;13.00;;;5.17;;
13309;SDS011;6723;48.256;16.402;2024-02-15T05:46:11;7.83;;;5.03;;
13309;SDS011;6723;48.256;16.402;2024-02-15T05:48:38;8.57;;;5.30;;
13309;SDS011;6723;48.256;16.402;2024-02-15T05:51:05;9.80;;;5.03;;
13309;SDS011;6723;48.256;16.402;2024-02-15T05:53:32;9.97;;;5.67;;
13309;SDS011;6723;48.256;16.402;2024-02-15T05:56:05;10.07;;;5.73;;
13309;SDS011;6723;48.256;16.402;2024-02-15T05:58:35;10.17;;;6.03;;
13309;SDS011;6723;48.256;16.402;2024-02-15T06:01:02;11.23;;;6.10;;
13309;SDS011;6723;48.256;16.402;2024-02-15T06:03:32;10.07;;;5.90;;
13309;SDS011;6723;48.256;16.402;2024-02-15T06:06:00;7.70;;;5.23;;
13309;SDS011;6723;48.256;16.402;2024-02-15T06:08:27;7.93;;;5.27;;
13309;SDS011;6723;48.256;16.402;2024-02-15T06:10:57;9.03;;;5.53;;
13309;SDS011;6723;48.256;16.402;2024-02-15T06:13:23;7.50;;;5.37;;
13309;SDS011;6723;48.256;16.402;2024-02-15T06:15:50;9.77;;;5.40;;
13309;SDS011;6723;48.256;16.402;2024-02-15T06:18:23;9.40;;;6.33;;
13309;SDS011;6723;48.256;16.402;2024-02-15T06:20:57;11.20;;;5.90;;
13309;SDS011;6723;48.256;16.402;2024-02-15T06:23:24;8.97;;;5.83;;
13309;SDS011;6723;48.256;16.402;2024-02-15T06:25:52;8.23;;;5.47;;
13309;SDS011;6723;48.256;16.402;2024-02-15T06:28:20;12.07;;;6.73;;
13309;SDS011;6723;48.256;16.402;2024-02-15T06:31:05;15.13;;;7.00;;
13309;SDS011;6723;48.256;16.402;2024-02-15T06:33:50;14.10;;;6.97;;
13309;SDS011;6723;48.256;16.402;2024-02-15T06:36:39;10.67;;;7.43;;
13309;SDS011;6723;48.256;16.402;2024-02-15T06:39:33;10.60;;;7.07;;
13309;SDS011;6723;48.256;16.402;2024-02-15T06:42:12;13.90;;;7.43;;
13309;SDS011;6723;48.256;16.402;2024-02-15T06:44:46;13.70;;;7.00;;
13309;SDS011;6723;48.256;16.402;2024-02-15T06:47:13;11.90;;;7.63;;
13309;SDS011;6723;48.256;16.402;2024-02-15T06:49:42;10.37;;;7.87;;
13309;SDS011;6723;48.256;16.402;2024-02-15T06:52:09;13.80;;;7.83;;
13309;SDS011;6723;48.256;16.402;2024-02-15T06:54:39;17.00;;;8.53;;
13309;SDS011;6723;48.256;16.402;2024-02-15T06:57:06;11.47;;;7.60;;
13309;SDS011;6723;48.256;16.402;2024-02-15T06:59:33;12.10;;;7.90;;
13309;SDS011;6723;48.256;16.402;2024-02-15T07:02:03;15.07;;;7.73;;
13309;SDS011;6723;48.256;16.402;2024-02-15T07:04:33;14.97;;;7.90;;
13309;SDS011;6723;48.256;16.402;2024-02-15T07:06:58;15.23;;;7.83;;
13309;SDS011;6723;48.256;16.402;2024-02-15T07:09:28;10.40;;;7.50;;
13309;SDS011;6723;48.256;16.402;2024-02-15T07:11:54;10.77;;;7.40;;
13309;SDS011;6723;48.256;16.402;2024-02-15T07:14:20;10.00;;;7.07;;
13309;SDS011;6723;48.256;16.402;2024-02-15T07:16:46;12.30;;;7.87;;
13309;SDS011;6723;48.256;16.402;2024-02-15T07:19:13;10.37;;;7.43;;
13309;SDS011;6723;48.256;16.402;2024-02-15T07:21:39;13.60;;;8.10;;
13309;SDS011;6723;48.256;16.402;2024-02-15T07:24:06;13.33;;;8.27;;
13309;SDS011;6723;48.256;16.402;2024-02-15T07:26:32;14.10;;;7.80;;
13309;SDS011;6723;48.256;16.402;2024-02-15T07:29:00;9.50;;;7.80;;
13309;SDS011;6723;48.256;16.402;2024-02-15T07:31:29;11.53;;;8.63;;
13309;SDS011;6723;48.256;16.402;2024-02-15T07:33:55;12.93;;;8.50;;
13309;SDS011;6723;48.256;16.402;2024-02-15T07:36:21;14.17;;;8.70;;
13309;SDS011;6723;48.256;16.402;2024-02-15T07:38:52;14.07;;;8.57;;
13309;SDS011;6723;48.256;16.402;2024-02-15T07:41:20;13.30;;;9.30;;
13309;SDS011;6723;48.256;16.402;2024-02-15T07:43:50;16.13;;;9.03;;
13309;SDS011;6723;48.256;16.402;2024-02-15T07:46:20;13.57;;;8.87;;
13309;SDS011;6723;48.256;16.402;2024-02-15T07:48:46;16.20;;;8.90;;
13309;SDS011;6723;48.256;16.402;2024-02-15T07:51:13;15.37;;;8.70;;
13309;SDS011;6723;48.256;16.402;2024-02-15T07:53:45;12.37;;;8.50;;
13309;SDS011;6723;48.256;16.402;2024-02-15T07:56:12;13.23;;;9.20;;
13309;SDS011;6723;48.256;16.402;2024-02-15T07:58:42;18.07;;;9.90;;
13309;SDS011;6723;48.256;16.402;2024-02-15T08:01:15;15.57;;;9.53;;
13309;SDS011;6723;48.256;16.402;2024-02-15T08:03:47;11.80;;;8.60;;
13309;SDS011;6723;48.256;16.402;2024-02-15T08:06:14;15.33;;;10.03;;
13309;SDS011;6723;48.256;16.402;2024-02-15T08:08:45;13.17;;;9.00;;
13309;SDS011;6723;48.256;16.402;2024-02-15T08:11:12;12.93;;;9.60;;
13309;SDS011;6723;48.256;16.402;2024-02-15T08:13:44;14.70;;;8.90;;
13309;SDS011;6723;48.256;16.402;2024-02-15T08:16:10;20.93;;;9.50;;
13309;SDS011;6723;48.256;16.402;2024-02-15T08:18:37;11.63;;;8.93;;
13309;SDS011;6723;48.256;16.402;2024-02-15T08:21:04;13.43;;;9.53;;
13309;SDS011;6723;48.256;16.402;2024-02-15T08:23:30;13.53;;;9.67;;
13309;SDS011;6723;48.256;16.402;2024-02-15T08:25:57;15.50;;;9.63;;
13309;SDS011;6723;48.256;16.402;2024-02-15T08:28:23;11.03;;;8.43;;
13309;SDS011;6723;48.256;16.402;2024-02-15T08:30:49;13.17;;;9.80;;
13309;SDS011;6723;48.256;16.402;2024-02-15T08:33:17;13.83;;;9.67;;
13309;SDS011;6723;48.256;16.402;2024-02-15T08:35:44;15.27;;;9.10;;
13309;SDS011;6723;48.256;16.402;2024-02-15T08:38:10;15.07;;;9.87;;
13309;SDS011;6723;48.256;16.402;2024-02-15T08:40:36;13.40;;;9.13;;
13309;SDS011;6723;48.256;16.402;2024-02-15T08:43:01;15.83;;;9.57;;
13309;SDS011;6723;48.256;16.402;2024-02-15T08:45:27;12.63;;;9.60;;
13309;SDS011;6723;48.256;16.402;2024-02-15T08:47:53;15.30;;;10.47;;
13309;SDS011;6723;48.256;16.402;2024-02-15T08:50:19;13.77;;;10.47;;
13309;SDS011;6723;48.256;16.402;2024-02-15T08:52:48;14.97;;;10.23;;
13309;SDS011;6723;48.256;16.402;2024-02-15T08:55:14;13.33;;;9.80;;
13309;SDS011;6723;48.256;16.402;2024-02-15T08:57:42;18.13;;;11.17;;
13309;SDS011;6723;48.256;16.402;2024-02-15T09:00:09;15.53;;;10.30;;
13309;SDS011;6723;48.256;16.402;2024-02-15T09:02:47;16.97;;;10.87;;
13309;SDS011;6723;48.256;16.402;2024-02-15T09:05:14;17.10;;;10.90;;
13309;SDS011;6723;48.256;16.402;2024-02-15T09:07:43;15.20;;;9.97;;
13309;SDS011;6723;48.256;16.402;2024-02-15T09:10:12;15.40;;;10.40;;
13309;SDS011;6723;48.256;16.402;2024-02-15T09:12:40;17.23;;;10.37;;
13309;SDS011;6723;48.256;16.402;2024-02-15T09:15:07;14.57;;;10.50;;
13309;SDS011;6723;48.256;16.402;2024-02-15T09:17:35;16.97;;;10.17;;
13309;SDS011;6723;48.256;16.402;2024-02-15T09:20:10;14.03;;;9.60;;
13309;SDS011;6723;48.256;16.402;2024-02-15T09:22:47;14.40;;;9.77;;
13309;SDS011;6723;48.256;16.402;2024-02-15T09:25:14;18.17;;;10.80;;
13309;SDS011;6723;48.256;16.402;2024-02-15T09:27:40;17.33;;;10.83;;
13309;SDS011;6723;48.256;16.402;2024-02-15T09:30:07;25.10;;;11.87;;
13309;SDS011;6723;48.256;16.402;2024-02-15T09:32:38;14.13;;;10.03;;
13309;SDS011;6723;48.256;16.402;2024-02-15T09:35:04;18.87;;;10.73;;
13309;SDS011;6723;48.256;16.402;2024-02-15T09:37:34;12.13;;;9.90;;
13309;SDS011;6723;48.256;16.402;2024-02-15T09:40:09;15.83;;;11.03;;
13309;SDS011;6723;48.256;16.402;2024-02-15T09:42:37;17.20;;;10.20;;
13309;SDS011;6723;48.256;16.402;2024-02-15T09:45:05;15.93;;;10.00;;
13309;SDS011;6723;48.256;16.402;2024-02-15T09:47:35;15.50;;;10.60;;
13309;SDS011;6723;48.256;16.402;2024-02-15T09:50:08;15.53;;;10.30;;
13309;SDS011;6723;48.256;16.402;2024-02-15T09:52:50;16.60;;;11.00;;
13309;SDS011;6723;48.256;16.402;2024-02-15T09:55:17;13.33;;;10.50;;
13309;SDS011;6723;48.256;16.402;2024-02-15T09:57:48;14.43;;;10.80;;
13309;SDS011;6723;48.256;16.402;2024-02-15T10:00:16;15.47;;;10.63;;
13309;SDS011;6723;48.256;16.402;2024-02-15T10:02:42;14.70;;;10.70;;
13309;SDS011;6723;48.256;16.402;2024-02-15T10:05:10;15.67;;;10.40;;
13309;SDS011;6723;48.256;16.402;2024-02-15T10:07:40;15.50;;;9.90;;
13309;SDS011;6723;48.256;16.402;2024-02-15T10:12:46;13.27;;;9.90;;
13309;SDS011;6723;48.256;16.402;2024-02-15T10:15:37;15.60;;;10.07;;
13309;SDS011;6723;48.256;16.402;2024-02-15T10:18:06;13.63;;;9.90;;
13309;SDS011;6723;48.256;16.402;2024-02-15T10:20:38;16.67;;;10.20;;
13309;SDS011;6723;48.256;16.402;2024-02-15T10:25:33;13.47;;;9.57;;
13309;SDS011;6723;48.256;16.402;2024-02-15T10:28:03;14.53;;;9.73;;
13309;SDS011;6723;48.256;16.402;2024-02-15T10:30:33;13.50;;;9.07;;
13309;SDS011;6723;48.256;16.402;2024-02-15T10:33:03;11.57;;;8.30;;
13309;SDS011;6723;48.256;16.402;2024-02-15T10:35:29;11.20;;;7.77;;
13309;SDS011;6723;48.256;16.402;2024-02-15T10:38:09;12.30;;;8.93;;
13309;SDS011;6723;48.256;16.402;2024-02-15T10:40:36;15.07;;;8.37;;
13309;SDS011;6723;48.256;16.402;2024-02-15T10:43:03;12.40;;;8.67;;
13309;SDS011;6723;48.256;16.402;2024-02-15T10:45:31;11.90;;;8.50;;
13309;SDS011;6723;48.256;16.402;2024-02-15T10:47:57;9.37;;;7.53;;
13309;SDS011;6723;48.256;16.402;2024-02-15T10:50:24;11.20;;;7.70;;
13309;SDS011;6723;48.256;16.402;2024-02-15T10:52:57;11.37;;;7.20;;
13309;SDS011;6723;48.256;16.402;2024-02-15T10:55:38;15.67;;;6.83;;
13309;SDS011;6723;48.256;16.402;2024-02-15T10:58:08;11.20;;;6.40;;
13309;SDS011;6723;48.256;16.402;2024-02-15T11:00:40;7.03;;;5.70;;
13309;SDS011;6723;48.256;16.402;2024-02-15T11:03:09;8.90;;;6.07;;
13309;SDS011;6723;48.256;16.402;2024-02-15T11:05:38;5.93;;;4.77;;
13309;SDS011;6723;48.256;16.402;2024-02-15T11:08:06;5.53;;;4.20;;
13309;SDS011;6723;48.256;16.402;2024-02-15T11:10:34;7.77;;;4.33;;
13309;SDS011;6723;48.256;16.402;2024-02-15T11:13:01;8.07;;;4.40;;
13309;SDS011;6723;48.256;16.402;2024-02-15T11:15:40;6.77;;;4.03;;
13309;SDS011;6723;48.256;16.402;2024-02-15T11:18:10;6.03;;;3.97;;
13309;SDS011;6723;48.256;16.402;2024-02-15T11:23:03;5.27;;;3.60;;
13309;SDS011;6723;48.256;16.402;2024-02-15T11:25:36;7.17;;;4.00;;
13309;SDS011;6723;48.256;16.402;2024-02-15T11:30:52;5.30;;;3.43;;
13309;SDS011;6723;48.256;16.402;2024-02-15T11:38:34;4.23;;;2.77;;
13309;SDS011;6723;48.256;16.402;2024-02-15T11:41:04;2.93;;;2.60;;
13309;SDS011;6723;48.256;16.402;2024-02-15T11:43:45;3.90;;;2.70;;
13309;SDS011;6723;48.256;16.402;2024-02-15T11:46:15;4.20;;;2.47;;
13309;SDS011;6723;48.256;16.402;2024-02-15T11:48:44;4.13;;;2.40;;
13309;SDS011;6723;48.256;16.402;2024-02-15T11:51:11;4.80;;;2.50;;
13309;SDS011;6723;48.256;16.402;2024-02-15T11:54:08;4.70;;;2.70;;
13309;SDS011;6723;48.256;16.402;2024-02-15T11:59:12;6.20;;;2.70;;
13309;SDS011;6723;48.256;16.402;2024-02-15T12:01:54;3.30;;;2.70;;
13309;SDS011;6723;48.256;16.402;2024-02-15T12:04:45;4.27;;;2.67;;
13309;SDS011;6723;48.256;16.402;2024-02-15T12:07:30;5.17;;;2.80;;
13309;SDS011;6723;48.256;16.402;2024-02-15T12:10:18;5.43;;;3.00;;
13309;SDS011;6723;48.256;16.402;2024-02-15T12:13:02;5.07;;;3.50;;
13309;SDS011;6723;48.256;16.402;2024-02-15T12:15:57;7.70;;;5.90;;
13309;SDS011;6723;48.256;16.402;2024-02-15T12:18:45;6.73;;;4.80;;
13309;SDS011;6723;48.256;16.402;2024-02-15T12:21:17;6.07;;;5.17;;
13309;SDS011;6723;48.256;16.402;2024-02-15T12:23:49;8.67;;;5.30;;
13309;SDS011;6723;48.256;16.402;2024-02-15T12:26:21;6.07;;;5.10;;
13309;SDS011;6723;48.256;16.402;2024-02-15T12:28:55;6.77;;;5.53;;
13309;SDS011;6723;48.256;16.402;2024-02-15T12:31:21;11.67;;;6.60;;
13309;SDS011;6723;48.256;16.402;2024-02-15T12:34:01;8.30;;;6.07;;
13309;SDS011;6723;48.256;16.402;2024-02-15T12:36:33;9.70;;;6.67;;
13309;SDS011;6723;48.256;16.402;2024-02-15T12:39:05;9.23;;;6.27;;
13309;SDS011;6723;48.256;16.402;2024-02-15T12:41:47;11.27;;;6.90;;
13309;SDS011;6723;48.256;16.402;2024-02-15T12:44:17;9.97;;;6.80;;
13309;SDS011;6723;48.256;16.402;2024-02-15T12:46:45;9.43;;;7.27;;
13309;SDS011;6723;48.256;16.402;2024-02-15T12:51:54;9.13;;;7.63;;
13309;SDS011;6723;48.256;16.402;2024-02-15T12:54:39;9.97;;;6.97;;
13309;SDS011;6723;48.256;16.402;2024-02-15T12:57:07;8.40;;;7.20;;
13309;SDS011;6723;48.256;16.402;2024-02-15T12:59:38;7.70;;;6.93;;
13309;SDS011;6723;48.256;16.402;2024-02-15T13:02:04;11.27;;;7.80;;
13309;SDS011;6723;48.256;16.402;2024-02-15T13:04:30;8.90;;;7.70;;
13309;SDS011;6723;48.256;16.402;2024-02-15T13:06:56;9.17;;;8.27;;
13309;SDS011;6723;48.256;16.402;2024-02-15T13:09:22;14.10;;;7.83;;
13309;SDS011;6723;48.256;16.402;2024-02-15T13:11:48;14.63;;;8.53;;
13309;SDS011;6723;48.256;16.402;2024-02-15T13:14:15;15.73;;;8.73;;
13309;SDS011;6723;48.256;16.402;2024-02-15T13:16:41;12.77;;;9.27;;
13309;SDS011;6723;48.256;16.402;2024-02-15T13:19:11;10.63;;;8.50;;
13309;SDS011;6723;48.256;16.402;2024-02-15T13:21:37;12.87;;;8.40;;
13309;SDS011;6723;48.256;16.402;2024-02-15T13:24:03;14.10;;;7.67;;
13309;SDS011;6723;48.256;16.402;2024-02-15T13:26:32;11.40;;;8.23;;
13309;SDS011;6723;48.256;16.402;2024-02-15T13:28:59;10.43;;;8.10;;
13309;SDS011;6723;48.256;16.402;2024-02-15T13:31:25;9.67;;;8.03;;
13309;SDS011;6723;48.256;16.402;2024-02-15T13:33:52;10.97;;;7.60;;
13309;SDS011;6723;48.256;16.402;2024-02-15T13:36:18;8.97;;;7.63;;
13309;SDS011;6723;48.256;16.402;2024-02-15T13:38:45;10.93;;;7.47;;
13309;SDS011;6723;48.256;16.402;2024-02-15T13:41:12;9.93;;;7.67;;
13309;SDS011;6723;48.256;16.402;2024-02-15T13:43:37;11.60;;;6.67;;
13309;SDS011;6723;48.256;16.402;2024-02-15T13:46:06;11.57;;;6.40;;
13309;SDS011;6723;48.256;16.402;2024-02-15T13:48:32;8.20;;;6.27;;
13309;SDS011;6723;48.256;16.402;2024-02-15T13:50:57;10.00;;;5.67;;
13309;SDS011;6723;48.256;16.402;2024-02-15T13:53:23;9.13;;;6.07;;
13309;SDS011;6723;48.256;16.402;2024-02-15T13:55:53;9.53;;;5.83;;
13309;SDS011;6723;48.256;16.402;2024-02-15T13:58:19;7.63;;;5.67;;
13309;SDS011;6723;48.256;16.402;2024-02-15T14:00:44;8.57;;;6.07;;
13309;SDS011;6723;48.256;16.402;2024-02-15T14:03:11;7.90;;;5.57;;
13309;SDS011;6723;48.256;16.402;2024-02-15T14:05:37;8.23;;;5.80;;
13309;SDS011;6723;48.256;16.402;2024-02-15T14:08:05;8.30;;;5.60;;
13309;SDS011;6723;48.256;16.402;2024-02-15T14:10:32;7.97;;;5.57;;
13309;SDS011;6723;48.256;16.402;2024-02-15T14:13:01;7.97;;;5.87;;
13309;SDS011;6723;48.256;16.402;2024-02-15T14:15:33;10.03;;;5.50;;
13309;SDS011;6723;48.256;16.402;2024-02-15T14:18:05;8.93;;;6.37;;
13309;SDS011;6723;48.256;16.402;2024-02-15T14:20:32;9.77;;;6.03;;
13309;SDS011;6723;48.256;16.402;2024-02-15T14:22:58;8.97;;;7.30;;
13309;SDS011;6723;48.256;16.402;2024-02-15T14:25:28;10.50;;;7.90;;
13309;SDS011;6723;48.256;16.402;2024-02-15T14:27:56;11.50;;;7.87;;
13309;SDS011;6723;48.256;16.402;2024-02-15T14:30:23;12.40;;;8.30;;
13309;SDS011;6723;48.256;16.402;2024-02-15T14:33:08;12.70;;;8.47;;
13309;SDS011;6723;48.256;16.402;2024-02-15T14:35:36;10.73;;;8.40;;
13309;SDS011;6723;48.256;16.402;2024-02-15T14:40:32;11.07;;;8.97;;
13309;SDS011;6723;48.256;16.402;2024-02-15T14:42:58;14.07;;;10.20;;
13309;SDS011;6723;48.256;16.402;2024-02-15T14:45:24;12.83;;;9.70;;
13309;SDS011;6723;48.256;16.402;2024-02-15T14:47:51;15.70;;;10.53;;
13309;SDS011;6723;48.256;16.402;2024-02-15T14:50:17;13.97;;;10.83;;
13309;SDS011;6723;48.256;16.402;2024-02-15T14:52:45;15.03;;;10.20;;
13309;SDS011;6723;48.256;16.402;2024-02-15T14:55:13;14.23;;;10.83;;
13309;SDS011;6723;48.256;16.402;2024-02-15T14:57:39;15.30;;;10.97;;
13309;SDS011;6723;48.256;16.402;2024-02-15T15:00:06;17.50;;;11.73;;
13309;SDS011;6723;48.256;16.402;2024-02-15T15:02:46;14.83;;;12.13;;
13309;SDS011;6723;48.256;16.402;2024-02-15T15:05:13;16.43;;;12.17;;
13309;SDS011;6723;48.256;16.402;2024-02-15T15:07:58;15.90;;;12.10;;
13309;SDS011;6723;48.256;16.402;2024-02-15T15:10:46;18.90;;;12.50;;
13309;SDS011;6723;48.256;16.402;2024-02-15T15:13:32;16.23;;;12.70;;
13309;SDS011;6723;48.256;16.402;2024-02-15T15:15:59;15.30;;;13.03;;